aviador You're here:

ROIG Decoded Metar

ISHIGAKI in JAPAN
Report Time2018-01-17 09:00:00
UTC Time2018-01-17 09:18:35
Flight Rules vfr VFR
Wind040° at 14 kt
W.Decomp.*RWY 04: 14.0 kt HW 1.0 kt RCW
W.Rank040° ranks 4
Current wind is above 040° avg. (12.8)
Visibility9999 m
Phenomena:N/A
Clouds:Few 010 Hf
Scattered 050 Hf
Broken 080 Hf
Expected CloudBase > 400 ft AGL from Temp-Dew spread
Ceiling8,000 ft
Temp21°C (ISA +6)
Dew Point20°C (94% RH)
AAT19.7°C
QNH1014 hPa
Density Alt1,004 ft
Elevation23 ft
Report Wrong Elevation
Raw Report
ROIG 170900Z 04014KT 9999 FEW010 SCT050 BKN080 21/20 Q1014=

Extra information for ROIG:More info

Metar Taf Metar & Taf Last 4 Metars F.Rules Stats Wind Profile Meteogram Temp Stats Airport Information Weather charts Add Link Nearby VenuesMetar ALERT Operation Metar Decoded Social comments